createdAt,value
2017-12-04T00:01:48.345Z,94.89
2017-12-04T00:04:17.964Z,94.72
2017-12-04T00:06:45.715Z,94.78
2017-12-04T00:09:15.199Z,94.71
2017-12-04T00:11:43.718Z,94.70
2017-12-04T00:14:11.643Z,94.59
2017-12-04T00:16:39.384Z,94.44
2017-12-04T00:19:08.038Z,94.39
2017-12-04T00:21:37.450Z,94.26
2017-12-04T00:24:05.349Z,94.25
2017-12-04T00:26:35.199Z,94.14
2017-12-04T00:29:03.846Z,94.17
2017-12-04T00:31:35.127Z,94.27
2017-12-04T00:34:02.818Z,94.41
2017-12-04T00:36:31.347Z,94.50
2017-12-04T00:38:58.989Z,94.50
2017-12-04T00:41:28.567Z,94.48
2017-12-04T00:43:58.209Z,94.51
2017-12-04T00:46:26.256Z,94.57
2017-12-04T00:48:54.177Z,94.53
2017-12-04T00:51:21.963Z,94.66
2017-12-04T00:53:50.910Z,94.64
2017-12-04T00:56:18.719Z,94.63
2017-12-04T00:58:46.391Z,94.45
2017-12-04T01:01:14.340Z,94.47
2017-12-04T01:03:42.237Z,94.45
2017-12-04T01:06:11.636Z,94.60
2017-12-04T01:08:39.369Z,94.71
2017-12-04T01:11:07.054Z,94.92
2017-12-04T01:13:35.128Z,94.92
2017-12-04T01:16:02.889Z,94.92
2017-12-04T01:18:30.554Z,95.05
2017-12-04T01:20:58.337Z,95.06
2017-12-04T01:23:27.946Z,95.07
2017-12-04T01:25:57.347Z,95.01
2017-12-04T01:28:25.201Z,94.97
2017-12-04T01:30:52.883Z,94.83
2017-12-04T01:33:21.561Z,94.82
2017-12-04T01:35:49.310Z,94.66
2017-12-04T01:38:17.058Z,94.65
2017-12-04T01:40:44.864Z,94.69
2017-12-04T01:43:14.417Z,94.84
2017-12-04T01:45:43.923Z,94.89
2017-12-04T01:48:11.699Z,94.91
2017-12-04T01:50:41.116Z,94.96
2017-12-04T01:53:09.753Z,95.10
2017-12-04T01:55:37.483Z,95.31
2017-12-04T01:58:07.336Z,95.32
2017-12-04T02:00:35.053Z,95.37
2017-12-04T02:03:02.885Z,95.52
2017-12-04T02:05:30.881Z,95.58
2017-12-04T02:08:01.405Z,95.72
2017-12-04T02:10:32.993Z,95.71
2017-12-04T02:13:00.733Z,95.72
2017-12-04T02:18:06.062Z,95.85
2017-12-04T02:20:36.361Z,95.95
2017-12-04T02:23:05.357Z,95.93
2017-12-04T02:25:34.681Z,96.05
2017-12-04T02:28:02.377Z,96.08
2017-12-04T02:30:30.105Z,96.33
2017-12-04T02:33:00.357Z,96.35
2017-12-04T02:35:28.210Z,96.42
2017-12-04T02:37:58.759Z,96.30
2017-12-04T02:40:26.479Z,96.32
2017-12-04T02:42:54.146Z,96.31
2017-12-04T02:45:21.840Z,96.37
2017-12-04T02:47:49.497Z,96.32
2017-12-04T02:50:17.267Z,96.38
2017-12-04T02:52:44.981Z,96.46
2017-12-04T02:55:12.781Z,96.55
2017-12-04T02:57:40.518Z,96.49
2017-12-04T03:00:08.221Z,96.38
2017-12-04T03:02:35.931Z,96.41
2017-12-04T03:05:05.384Z,96.46
2017-12-04T03:07:33.212Z,96.37
2017-12-04T03:10:00.884Z,96.33
2017-12-04T03:12:30.260Z,96.32
2017-12-04T03:14:58.845Z,96.26
2017-12-04T03:17:26.680Z,96.20
2017-12-04T03:19:56.080Z,96.25
2017-12-04T03:22:23.808Z,96.09
2017-12-04T03:24:51.556Z,96.13
2017-12-04T03:27:19.271Z,96.03
2017-12-04T03:29:46.975Z,96.02
2017-12-04T03:32:14.704Z,95.93
2017-12-04T03:34:44.311Z,95.95
2017-12-04T03:37:12.723Z,95.93
2017-12-04T03:39:40.392Z,95.88
2017-12-04T03:42:10.798Z,95.80
2017-12-04T03:44:38.504Z,95.73
2017-12-04T03:47:09.014Z,95.62
2017-12-04T03:49:36.942Z,95.63
2017-12-04T03:52:07.516Z,95.46
2017-12-04T03:54:35.186Z,95.38
2017-12-04T03:57:04.650Z,95.29
2017-12-04T03:59:32.388Z,95.24
2017-12-04T04:02:00.178Z,95.26
2017-12-04T04:04:27.914Z,95.18
2017-12-04T04:06:56.580Z,95.09
2017-12-04T04:09:26.388Z,95.14
2017-12-04T04:11:54.119Z,95.18
2017-12-04T04:14:22.015Z,95.16
2017-12-04T04:16:49.724Z,95.14
2017-12-04T04:19:17.434Z,95.19
2017-12-04T04:21:45.180Z,95.32
2017-12-04T04:24:13.234Z,95.40
2017-12-04T04:26:40.990Z,95.52
2017-12-04T04:29:11.424Z,95.53
2017-12-04T04:31:39.338Z,95.58
2017-12-04T04:34:07.977Z,95.61
2017-12-04T04:36:35.679Z,95.63
2017-12-04T04:39:05.122Z,95.63
2017-12-04T04:41:32.832Z,95.74
2017-12-04T04:44:00.512Z,95.76
2017-12-04T04:46:29.807Z,95.83
2017-12-04T04:48:57.530Z,95.81
2017-12-04T04:51:26.156Z,95.92
2017-12-04T04:53:55.608Z,96.02
2017-12-04T04:56:23.594Z,95.96
2017-12-04T04:58:53.451Z,96.02
2017-12-04T05:01:21.170Z,96.04
2017-12-04T05:03:48.848Z,96.09
2017-12-04T05:06:17.236Z,96.21
2017-12-04T05:08:46.588Z,96.31
2017-12-04T05:11:14.344Z,96.31
2017-12-04T05:13:42.266Z,96.36
2017-12-04T05:16:09.955Z,96.42
2017-12-04T05:18:37.659Z,96.45
2017-12-04T05:21:08.538Z,96.40
2017-12-04T05:23:36.432Z,96.47
2017-12-04T05:26:04.317Z,96.42
2017-12-04T05:28:32.001Z,96.40
2017-12-04T05:30:59.838Z,96.45
2017-12-04T05:33:28.422Z,96.41
2017-12-04T05:35:56.189Z,96.34
2017-12-04T05:38:23.839Z,96.32
2017-12-04T05:40:53.832Z,96.33
2017-12-04T05:43:21.576Z,96.23
2017-12-04T05:45:49.413Z,96.26
2017-12-04T05:48:17.178Z,96.25
2017-12-04T05:50:44.871Z,96.26
2017-12-04T05:53:12.784Z,96.32
2017-12-04T05:55:43.131Z,96.35
2017-12-04T05:58:12.811Z,96.37
2017-12-04T06:00:42.352Z,96.40
2017-12-04T06:03:12.671Z,96.41
2017-12-04T06:05:42.591Z,96.38
2017-12-04T06:08:12.059Z,96.23
2017-12-04T06:10:39.783Z,96.21
2017-12-04T06:13:09.095Z,96.26
2017-12-04T06:15:36.813Z,96.14
2017-12-04T06:18:06.273Z,96.01
2017-12-04T06:20:34.013Z,95.84
2017-12-04T06:23:01.877Z,95.52
2017-12-04T06:25:31.329Z,95.41
2017-12-04T06:27:59.987Z,95.28
2017-12-04T06:30:28.418Z,95.02
2017-12-04T06:32:58.249Z,94.86
2017-12-04T06:35:26.059Z,94.67
2017-12-04T06:37:55.470Z,94.52
2017-12-04T06:40:23.929Z,94.41
2017-12-04T06:42:51.747Z,94.43
2017-12-04T06:45:19.716Z,94.37
2017-12-04T06:47:50.260Z,94.41
2017-12-04T06:50:19.767Z,94.20
2017-12-04T06:52:49.165Z,94.21
2017-12-04T06:55:17.023Z,94.17
2017-12-04T06:57:44.699Z,94.31
2017-12-04T07:00:12.416Z,94.70
2017-12-04T07:02:41.912Z,95.02
2017-12-04T07:05:09.675Z,95.35
2017-12-04T07:07:40.737Z,95.67
2017-12-04T07:10:10.679Z,96.12
2017-12-04T07:12:41.977Z,96.34
2017-12-04T07:15:09.856Z,96.55
2017-12-04T07:17:37.750Z,96.76
2017-12-04T07:20:07.311Z,96.96
2017-12-04T07:22:36.905Z,96.99
2017-12-04T07:25:04.645Z,97.06
2017-12-04T07:27:32.496Z,97.15
2017-12-04T07:30:01.955Z,97.17
2017-12-04T07:32:29.740Z,97.24
2017-12-04T07:34:59.148Z,97.37
2017-12-04T07:37:28.837Z,97.47
2017-12-04T07:39:57.465Z,97.46
2017-12-04T07:42:25.165Z,97.44
2017-12-04T07:44:52.911Z,97.51
2017-12-04T07:47:20.830Z,97.55
2017-12-04T07:49:51.069Z,97.57
2017-12-04T07:52:18.765Z,97.56
2017-12-04T07:54:48.280Z,97.62
2017-12-04T07:57:16.761Z,97.51
2017-12-04T07:59:46.069Z,97.45
2017-12-04T08:02:16.421Z,97.37
2017-12-04T08:04:44.359Z,97.28
2017-12-04T08:07:12.047Z,97.12
2017-12-04T08:09:39.738Z,97.04
2017-12-04T08:12:07.397Z,96.92
2017-12-04T08:14:35.079Z,96.78
2017-12-04T08:17:02.725Z,96.66
2017-12-04T08:19:33.050Z,96.48
2017-12-04T08:22:02.470Z,96.32
2017-12-04T08:24:30.283Z,95.98
2017-12-04T08:26:58.877Z,95.62
2017-12-04T08:29:26.589Z,95.34
2017-12-04T08:31:54.324Z,95.13
2017-12-04T08:34:22.264Z,94.90
2017-12-04T08:36:51.574Z,94.52
2017-12-04T08:39:19.589Z,94.08
2017-12-04T08:41:48.047Z,93.87
2017-12-04T08:44:15.756Z,93.90
2017-12-04T08:46:45.180Z,93.93
2017-12-04T08:49:12.949Z,93.78
2017-12-04T08:51:43.329Z,93.64
2017-12-04T08:54:11.813Z,93.61
2017-12-04T08:56:39.673Z,93.46
2017-12-04T08:59:07.447Z,93.46
2017-12-04T09:01:38.774Z,93.29
2017-12-04T09:04:09.133Z,93.29
2017-12-04T09:06:37.729Z,93.63
2017-12-04T09:09:07.177Z,93.71
2017-12-04T09:11:34.967Z,93.70
2017-12-04T09:14:02.964Z,93.87
2017-12-04T09:16:32.585Z,93.96
2017-12-04T09:19:00.279Z,94.03
2017-12-04T09:21:27.976Z,93.61
2017-12-04T09:23:58.700Z,93.34
2017-12-04T09:26:26.465Z,93.02
2017-12-04T09:28:54.137Z,92.92
2017-12-04T09:31:22.057Z,92.81
2017-12-04T09:33:49.727Z,92.50
2017-12-04T09:36:20.083Z,92.45
2017-12-04T09:38:47.922Z,92.28
2017-12-04T09:41:17.232Z,92.24
2017-12-04T09:43:46.699Z,92.03
2017-12-04T09:46:16.230Z,91.81
2017-12-04T09:48:45.564Z,91.80
2017-12-04T09:51:13.436Z,91.64
2017-12-04T09:53:43.052Z,91.70
2017-12-04T09:56:11.627Z,91.73
2017-12-04T09:58:39.326Z,91.70
2017-12-04T10:01:08.924Z,91.97
2017-12-04T10:03:40.552Z,92.19
2017-12-04T10:06:08.299Z,92.64
2017-12-04T10:08:36.814Z,92.81
2017-12-04T10:11:04.490Z,92.77
2017-12-04T10:13:33.953Z,92.99
2017-12-04T10:16:01.854Z,92.97
2017-12-04T10:18:29.549Z,93.15
2017-12-04T10:20:59.424Z,93.24
2017-12-04T10:23:27.146Z,93.31
2017-12-04T10:25:54.814Z,93.04
2017-12-04T10:28:22.538Z,92.78
2017-12-04T10:30:50.349Z,92.82
2017-12-04T10:33:18.135Z,92.69
2017-12-04T10:35:45.810Z,92.68
2017-12-04T10:38:13.502Z,92.62
2017-12-04T10:40:42.086Z,92.68
2017-12-04T10:43:09.784Z,92.58
2017-12-04T10:45:38.237Z,92.74
2017-12-04T10:48:07.732Z,92.72
2017-12-04T10:50:35.470Z,92.73
2017-12-04T10:53:04.732Z,92.59
2017-12-04T10:55:32.664Z,92.66
2017-12-04T10:58:00.325Z,92.91
2017-12-04T11:00:28.120Z,93.11
2017-12-04T11:02:58.426Z,93.25
2017-12-04T11:05:26.146Z,93.18
2017-12-04T11:07:53.809Z,92.94
2017-12-04T11:10:21.581Z,92.88
2017-12-04T11:12:50.879Z,92.86
2017-12-04T11:15:18.642Z,92.67
2017-12-04T11:17:46.310Z,92.68
2017-12-04T11:20:13.981Z,92.81
2017-12-04T11:22:42.421Z,92.78
2017-12-04T11:25:12.877Z,93.02
2017-12-04T11:27:40.638Z,93.32
2017-12-04T11:30:08.397Z,93.65
2017-12-04T11:32:36.863Z,93.81
2017-12-04T11:35:04.574Z,93.83
2017-12-04T11:37:32.262Z,93.80
2017-12-04T11:40:00.095Z,93.45
2017-12-04T11:42:30.397Z,93.52
2017-12-04T11:44:59.720Z,93.28
2017-12-04T11:47:29.399Z,93.17
2017-12-04T11:49:57.558Z,93.17
2017-12-04T11:52:25.264Z,92.89
2017-12-04T11:54:53.003Z,92.88
2017-12-04T11:57:20.667Z,92.83
2017-12-04T11:59:48.328Z,92.69
2017-12-04T12:02:16.837Z,92.83
2017-12-04T12:04:44.578Z,92.81
2017-12-04T12:07:12.501Z,92.79
2017-12-04T12:09:42.401Z,92.88
2017-12-04T12:12:10.061Z,92.97
2017-12-04T12:14:38.545Z,92.94
2017-12-04T12:17:06.353Z,92.80
2017-12-04T12:19:34.038Z,92.63
2017-12-04T12:22:01.870Z,92.50
2017-12-04T12:24:29.784Z,92.52
2017-12-04T12:26:57.544Z,92.59
2017-12-04T12:29:25.365Z,92.55
2017-12-04T12:31:54.957Z,92.61
2017-12-04T12:34:24.416Z,92.63
2017-12-04T12:36:52.113Z,92.66
2017-12-04T12:39:21.508Z,92.78
2017-12-04T12:41:51.030Z,92.93
2017-12-04T12:44:19.443Z,93.11
2017-12-04T12:46:47.217Z,93.48
2017-12-04T12:49:14.869Z,93.49
2017-12-04T12:51:42.556Z,93.60
2017-12-04T12:54:12.238Z,93.60
2017-12-04T12:56:40.051Z,93.63
2017-12-04T12:59:10.358Z,93.53
2017-12-04T13:01:38.907Z,93.64
2017-12-04T13:04:08.862Z,93.60
2017-12-04T13:06:36.770Z,93.60
2017-12-04T13:09:04.422Z,93.57
2017-12-04T13:11:33.070Z,93.62
2017-12-04T13:14:00.938Z,93.63
2017-12-04T13:16:28.650Z,93.68
2017-12-04T13:18:58.621Z,93.71
2017-12-04T13:21:26.314Z,93.71
2017-12-04T13:23:53.988Z,93.68
2017-12-04T13:26:21.713Z,93.82
2017-12-04T13:28:50.098Z,93.90
2017-12-04T13:31:17.877Z,93.93
2017-12-04T13:34:00.273Z,93.97
2017-12-04T13:36:39.845Z,93.94
2017-12-04T13:39:07.633Z,93.73
2017-12-04T13:41:35.453Z,93.90
2017-12-04T13:44:03.107Z,93.83
2017-12-04T13:46:32.698Z,93.87
2017-12-04T13:49:03.171Z,93.80
2017-12-04T13:51:30.882Z,93.80
2017-12-04T13:54:01.516Z,93.71
2017-12-04T13:56:29.319Z,93.83
2017-12-04T13:58:57.060Z,93.92
2017-12-04T14:01:25.574Z,94.03
2017-12-04T14:03:54.940Z,94.17
2017-12-04T14:06:22.733Z,94.11
2017-12-04T14:08:52.551Z,94.23
2017-12-04T14:11:21.085Z,94.50
2017-12-04T14:13:51.466Z,94.73
2017-12-04T14:16:19.208Z,94.84
2017-12-04T14:18:47.066Z,95.08
2017-12-04T14:21:14.750Z,95.16
2017-12-04T14:23:43.255Z,95.29
2017-12-04T14:26:12.867Z,95.31
2017-12-04T14:28:40.619Z,95.26
2017-12-04T14:31:08.297Z,95.29
2017-12-04T14:33:37.734Z,95.31
2017-12-04T14:36:05.475Z,95.22
2017-12-04T14:38:35.095Z,95.24
2017-12-04T14:41:02.966Z,95.20
2017-12-04T14:43:31.383Z,95.14
2017-12-04T14:45:59.913Z,95.09
2017-12-04T14:48:27.707Z,95.10
2017-12-04T14:50:57.211Z,95.08
2017-12-04T14:53:26.818Z,95.08
2017-12-04T14:55:56.415Z,95.18
2017-12-04T14:58:25.003Z,95.24
2017-12-04T15:00:53.393Z,95.22
2017-12-04T15:03:21.192Z,95.31
2017-12-04T15:05:49.813Z,95.26
2017-12-04T15:08:17.517Z,95.24
2017-12-04T15:10:46.010Z,95.32
2017-12-04T15:13:13.704Z,95.35
2017-12-04T15:15:43.482Z,95.51
2017-12-04T15:18:11.200Z,95.47
2017-12-04T15:20:39.124Z,95.48
2017-12-04T15:23:06.978Z,95.45
2017-12-04T15:25:37.354Z,95.52
2017-12-04T15:28:07.749Z,95.51
2017-12-04T15:30:35.619Z,95.57
2017-12-04T15:33:05.991Z,95.52
2017-12-04T15:35:35.653Z,95.55
2017-12-04T15:38:03.524Z,95.61
2017-12-04T15:40:32.971Z,95.61
2017-12-04T15:43:00.884Z,95.59
2017-12-04T15:45:30.488Z,95.62
2017-12-04T15:47:59.042Z,95.74
2017-12-04T15:50:26.935Z,95.85
2017-12-04T15:52:56.400Z,95.85
2017-12-04T15:55:24.113Z,95.90
2017-12-04T15:57:53.614Z,95.96
2017-12-04T16:00:24.016Z,95.97
2017-12-04T16:02:53.338Z,96.00
2017-12-04T16:05:21.136Z,96.18
2017-12-04T16:07:50.444Z,96.23
2017-12-04T16:10:18.150Z,96.32
2017-12-04T16:12:45.832Z,96.44
2017-12-04T16:15:13.537Z,96.52
2017-12-04T16:17:41.285Z,96.49
2017-12-04T16:20:10.768Z,96.70
2017-12-04T16:22:40.399Z,96.67
2017-12-04T16:34:58.143Z,96.88
2017-12-04T16:37:27.494Z,96.92
2017-12-04T16:39:55.267Z,97.00
2017-12-04T16:42:23.794Z,97.02
2017-12-04T16:44:52.601Z,97.05
2017-12-04T16:47:22.141Z,97.08
2017-12-04T16:49:51.595Z,97.03
2017-12-04T16:52:20.138Z,96.98
2017-12-04T16:54:50.449Z,96.89
2017-12-04T16:57:20.767Z,96.90
2017-12-04T16:59:48.875Z,96.83
2017-12-04T17:02:16.630Z,96.83
2017-12-04T17:04:46.073Z,96.83
2017-12-04T17:07:14.130Z,96.84
2017-12-04T17:09:42.088Z,96.77
2017-12-04T17:12:10.534Z,96.88
2017-12-04T17:14:40.271Z,96.97
2017-12-04T17:17:09.092Z,96.90
2017-12-04T17:19:36.903Z,96.73
2017-12-04T17:22:04.585Z,96.81
2017-12-04T17:24:32.249Z,96.90
2017-12-04T17:27:00.289Z,97.14
2017-12-04T17:29:28.486Z,97.24
2017-12-04T17:31:58.241Z,97.40
2017-12-04T17:34:27.888Z,97.46
2017-12-04T17:36:55.809Z,97.53
2017-12-04T17:39:25.371Z,97.55
2017-12-04T17:41:54.925Z,97.51
2017-12-04T17:44:22.644Z,97.42
2017-12-04T17:46:50.408Z,97.41
2017-12-04T17:49:18.475Z,97.47
2017-12-04T17:51:47.243Z,97.52
2017-12-04T17:54:15.635Z,97.58
2017-12-04T17:56:44.317Z,97.55
2017-12-04T17:59:12.895Z,97.67
2017-12-04T18:01:41.347Z,97.77
2017-12-04T18:04:09.240Z,97.95
2017-12-04T18:06:40.151Z,97.95
2017-12-04T18:09:09.787Z,97.93
2017-12-04T18:11:37.631Z,98.00
2017-12-04T18:14:07.894Z,98.06
2017-12-04T18:16:35.716Z,98.05
2017-12-04T18:19:03.511Z,98.14
2017-12-04T18:21:31.242Z,98.14
2017-12-04T18:23:59.070Z,98.09
2017-12-04T18:26:27.832Z,98.08
2017-12-04T18:28:55.590Z,98.10
2017-12-04T18:31:23.392Z,98.23
2017-12-04T18:33:51.240Z,98.14
2017-12-04T18:36:20.870Z,98.14
2017-12-04T18:38:48.863Z,98.15
2017-12-04T18:41:18.480Z,98.30
2017-12-04T18:43:46.283Z,98.40
2017-12-04T18:46:15.826Z,98.42
2017-12-04T18:48:43.722Z,98.49
2017-12-04T18:51:13.646Z,98.43
2017-12-04T18:53:43.367Z,98.42
2017-12-04T18:56:11.338Z,98.38
2017-12-04T18:58:39.198Z,98.38
2017-12-04T19:01:06.987Z,98.34
2017-12-04T19:03:34.710Z,98.36
2017-12-04T19:06:02.418Z,98.25
2017-12-04T19:08:30.289Z,98.31
2017-12-04T19:10:58.767Z,98.46
2017-12-04T19:13:26.567Z,98.59
2017-12-04T19:15:56.802Z,98.72
2017-12-04T19:18:27.215Z,98.73
2017-12-04T19:20:55.079Z,98.83
2017-12-04T19:23:25.414Z,98.87
2017-12-04T19:25:54.473Z,98.90
2017-12-04T19:28:22.681Z,98.98
2017-12-04T19:30:50.910Z,99.01
2017-12-04T19:33:18.930Z,99.01
2017-12-04T19:35:46.886Z,99.02
2017-12-04T19:38:15.630Z,99.06
2017-12-04T19:40:43.653Z,99.08
2017-12-04T19:43:13.135Z,99.07
2017-12-04T19:45:41.353Z,99.12
2017-12-04T19:48:10.099Z,99.18
2017-12-04T19:50:38.033Z,99.23
2017-12-04T19:53:06.730Z,99.25
2017-12-04T19:55:36.494Z,99.29
2017-12-04T19:58:04.412Z,99.32
2017-12-04T20:00:33.585Z,99.30
2017-12-04T20:03:01.558Z,99.32
2017-12-04T20:05:29.651Z,99.33
2017-12-04T20:07:58.420Z,99.30
2017-12-04T20:10:26.577Z,99.34
2017-12-04T20:12:57.060Z,99.37
2017-12-04T20:15:24.956Z,99.35
2017-12-04T20:17:53.626Z,99.37
2017-12-04T20:20:23.565Z,99.33
2017-12-04T20:22:52.554Z,99.29
2017-12-04T20:25:21.399Z,99.26
2017-12-04T20:27:49.901Z,99.20
2017-12-04T20:30:17.937Z,99.19
2017-12-04T20:32:45.988Z,99.19
2017-12-04T20:35:13.752Z,99.17
2017-12-04T20:37:41.824Z,99.16
2017-12-04T20:40:12.302Z,99.16
2017-12-04T20:42:40.230Z,99.17
2017-12-04T20:45:08.160Z,99.13
2017-12-04T20:47:36.782Z,99.17
2017-12-04T20:50:04.865Z,99.16
2017-12-04T20:52:35.193Z,99.15
2017-12-04T20:55:04.029Z,99.21
2017-12-04T20:57:32.077Z,99.30
2017-12-04T21:00:01.638Z,99.40
2017-12-04T21:02:31.350Z,99.44
2017-12-04T21:04:59.970Z,99.45
2017-12-04T21:07:29.422Z,99.50
2017-12-04T21:10:09.032Z,99.47
2017-12-04T21:12:36.745Z,99.54
2017-12-04T21:15:18.079Z,99.53
2017-12-04T21:17:45.816Z,99.58
2017-12-04T21:20:13.518Z,99.63
2017-12-04T21:22:43.578Z,99.64
2017-12-04T21:25:11.370Z,99.66
2017-12-04T21:27:39.126Z,99.72
2017-12-04T21:30:07.048Z,99.75
2017-12-04T21:32:34.796Z,99.74
2017-12-04T21:35:04.096Z,99.79
2017-12-04T21:37:31.846Z,99.75
2017-12-04T21:40:01.259Z,99.74
2017-12-04T21:42:28.981Z,99.72
2017-12-04T21:44:59.632Z,99.68
2017-12-04T21:47:27.759Z,99.64
2017-12-04T21:49:56.011Z,99.63
2017-12-04T21:52:23.717Z,99.64
2017-12-04T21:54:51.831Z,99.60
2017-12-04T21:57:19.665Z,99.52
2017-12-04T21:59:47.491Z,99.53
2017-12-04T22:02:15.978Z,99.53
2017-12-04T22:04:44.463Z,99.53
2017-12-04T22:07:13.896Z,99.48
2017-12-04T22:09:42.615Z,99.52
2017-12-04T22:12:11.923Z,99.54
2017-12-04T22:14:41.392Z,99.53
2017-12-04T22:17:09.847Z,99.55
2017-12-04T22:19:37.521Z,99.54
2017-12-04T22:22:06.842Z,99.52
2017-12-04T22:24:34.555Z,99.52
2017-12-04T22:27:02.332Z,99.49
2017-12-04T22:29:29.979Z,99.54
2017-12-04T22:31:57.670Z,99.50
2017-12-04T22:34:25.366Z,99.55
2017-12-04T22:36:53.034Z,99.55
2017-12-04T22:39:20.772Z,99.56
2017-12-04T22:41:48.548Z,99.56
2017-12-04T22:44:16.248Z,99.50
2017-12-04T22:46:44.091Z,99.50
2017-12-04T22:49:11.853Z,99.54
2017-12-04T22:51:39.543Z,99.55
2017-12-04T22:54:08.135Z,99.54
2017-12-04T22:56:36.004Z,99.50
2017-12-04T22:59:05.421Z,99.51
2017-12-04T23:01:34.793Z,99.49
2017-12-04T23:04:05.135Z,99.44
2017-12-04T23:06:33.131Z,99.42
2017-12-04T23:09:02.929Z,99.30
2017-12-04T23:24:31.527Z,98.93
2017-12-04T23:27:00.046Z,98.93
2017-12-04T23:29:28.579Z,98.83
2017-12-04T23:31:56.438Z,98.81
2017-12-04T23:34:24.117Z,98.81
2017-12-04T23:36:51.910Z,98.75
2017-12-04T23:39:19.576Z,98.72
2017-12-04T23:41:47.414Z,98.70
2017-12-04T23:44:16.921Z,98.69
2017-12-04T23:46:45.396Z,98.46
2017-12-04T23:49:13.086Z,98.39
2017-12-04T23:51:43.378Z,98.38
2017-12-04T23:54:12.808Z,98.37
2017-12-04T23:56:40.813Z,98.31
2017-12-04T23:59:08.473Z,98.23
